Pagina principale
METAR-TAF:

METAR-TAF

Aeroporti :

San Gallo, Svizzera

latitudine: 47-29-06N, longitudine: 009-33-43E, altezza: 398 m

Osservazione

Il bollettino è stato emesso 27 minuti fa, alle 17:50 UTC
Vento 3 kt da direzioni variabili
Temperature 4°C
Umidità 81%
Pressione 1009 hPa
Visibilità 10 km o più
Nuvoloso ad un'altezza di 2000 ft

METAR: LSZR 211750Z VRB03KT 9999 BKN020 04/01 Q1009 NOSIG RMK M

Ora: 19:17 (18:17 UTC)

Previsione

Il bollettino è stato emesso 3 ore e 52 minuti fa, alle 14:25 UTC
Previsione valida dal 21 alle 15 UTC al 21 alle 24 UTC
Vento 3 kt da direzioni variabili
Visibilità 10 km o più
Nuvoloso ad un'altezza di 1600 ft
Evoluzione graduale
dal 21 alle 16 UTC al 21 alle 19 UTC
Visibilità: 4000 m
Cielo coperto ad un'altezza di 1200 ft
foschia
Probabilità 40%
dal 21 alle 19 UTC al 21 alle 24 UTC
Cielo coperto ad un'altezza di 900 ft

TAF: LSZR 211425Z 2115/2124 VRB03KT 9999 BKN016 BECMG 2116/2119 4000 BR OVC012 PROB40 2119/2124 OVC009

Osservazioni e previsioni meteorologiche di più di 4000 aeroporti (messaggi METAR e TAF).

Le stazioni disponibili sono rappresentate dai dischi gialli e rossi sulla carta.

Puntare il mouse per vedere il nome della stazione.

Clicca sopra per visualizzare le osservazioni e previsioni meteorologiche.

Per cambiare la mappa : fare clic sui pulsanti verdi con una croce nera per ingrandire, il pulsante verde con un trattino per diminuire, o sulla freccia verde per le mappe adiacenti.


METAR-TAF: